NCAR-RAP Real-Time Weather Data

Output produced by METARs form (24 April 2018  16:18 UTC)
found at http://weather.rap.ucar.edu/surface/
 
RJTY 241611Z AUTO 02008KT 5SM BR OVC009 14/14 A2976 RMK AO2 CIG 007V009 SLP080 FZRANO $
RJTY 241556Z AUTO 02005KT 5SM BR BKN007 OVC011 14/14 A2977 RMK AO2 CIG 007V011 BKN V SCT SLP084 T01420137 FZRANO $
RJTY 241550Z AUTO 03006KT 5SM BR BKN007 OVC011 14/14 A2977 RMK AO2 CIG 007V011 BKN V SCT SLP084 FZRANO $
RJTY 241535Z AUTO 32005KT 4SM BR OVC011 14/14 A2978 RMK AO2 SLP087 FZRANO $
RJTY 241456Z AUTO 01005KT 4SM BR BKN014 OVC045 14/14 A2980 RMK AO2 SLP094 60000 T01400137 401710130 57025 FZRANO $
RJTY 241441Z AUTO 01006KT 4SM BR BKN016 BKN045 14/14 A2981 RMK AO2 CIG 016V044 BKN016 V SCT SLP097 FZRANO $
RJTY 241356Z AUTO 36006KT 6SM BR BKN047 14/14 A2983 RMK AO2 RAE1256DZB13E16RAB16E31DZB31E32 SLP104 P0000 T01410136 FZRANO $
RJTY 241332Z AUTO 01005KT 5SM BR BKN047 14/14 A2983 RMK AO2 RAE1256DZB13E16RAB16E31DZB31E32 SLP104 FZRANO $
RJTY 241313Z AUTO 00000KT 5SM -DZ BR BKN049 14/14 A2984 RMK AO2 RAE1256DZB13 SLP108 FZRANO $
RJTY 241256Z 00000KT 4SM -RA BR BKN050 BKN160 14/14 A2985 RMK AO2A RAE1156 SLP112 P0000 T01410135 FZRANO $
RJTY 241156Z 05003KT 4SM -RA BR BKN065 14/13 A2988 RMK AO2A RAE02DZB02E03RAB03E44DZB44 SLP122 P0001 60001 T01430132 10161 20142 50005 FZRANO $
RJTY 241138Z COR AUTO 03003KT 4SM -RA BKN065 14/13 A2988 RMK AO2 RAE02DZB02E03RAB03 SLP122 FZRANO $ COR 1201
RJTY 241108Z AUTO 03003KT 6SM -RA BR FEW006 14/13 A2989 RMK AO2 RAE02DZB02E03RAB03 SLP125 FZRANO $
RJTY 241107Z AUTO 03003KT 6SM -RA BR CLR 14/13 A2989 RMK AO2 RAE02DZB02E03RAB03 SLP125 FZRANO $
RJTY 241056Z 01004KT 3SM -RA BR BKN065 15/13 A2989 RMK AO2A DZE0956RAB0956E09RAB42 SLP125 P0000 T01450130 FZRANO $
RJTY 241042Z 01004KT 3SM -RA BR BKN065 15/13 A2989 RMK AO2A DZE0956RAB0956E09RAB42 SLP125 FZRANO $
RJTY 241014Z 01007KT 3SM BR SCT015 BKN065 14/13 A2988 RMK AO2A DZE0956RAB0956E09 SLP122 FZRANO $
RJTY 240956Z COR AUTO 01005KT 3SM -DZ BR SCT015 BKN065 14/13 A2988 RMK AO2 DZB52 SLP122 P0000 T01430130 FZRANO $ COR 1013
RJTY 240952Z AUTO 01005KT 4SM -DZ BR FEW065 14/13 A2988 RMK AO2 DZB52 SLP122 FZRANO $
RJTY 240911Z 01006KT 2 1/2SM BR SCT015 BKN040 14/13 A2987 RMK AO2A SLP118 FZRANO $
RJTY 240856Z 02006KT 3SM BR SCT015 BKN040 15/13 A2986 RMK AO2A VIS 2 1/2 RWY18 SLP115 T01460130 56011 FZRANO $
RJTY 240756Z 03007KT 3SM BR SCT030 BKN050 15/13 A2986 RMK AO2A TWR VIS 2 SLP115 T01530133 FZRANO $
RJTY 240656Z 04007KT 3SM BR SCT030 BKN045 16/14 A2987 RMK AO2A TWR VIS 2 SLP118 T01580135 FZRANO $
RJTY 240556Z 36009KT 3SM BR SCT015 BKN040 16/14 A2989 RMK AO2A TWR VIS 2 SLP125 T01620137 10171 20135 57029 FZRANO $
RJTY 240456Z 03007KT 3SM BR SCT015 BKN040 17/14 A2992 RMK AO2A TWR VIS 2 SLP135 T01690140 FZRANO $
RJTY 240356Z 05007KT 3SM BR SCT015 BKN040 16/14 A2995 RMK AO2A TWR VIS 2 VIS N 2 1/2 SLP145 T01640140 FZRANO $
RJTY 240326Z 02008KT 3SM BR BKN015 17/14 A2996 RMK AO2A TWR VIS 2 VIS N 2 1/2 PRESFR SLP148 FZRANO $
RJTY 240308Z 01007KT 3SM BR BKN015 17/14 A2998 RMK AO2A SLP155 FZRANO $
RJTY 240256Z 36004KT 2 3/4SM SCT005 BKN015 17/14 A2998 RMK AO2A TWR VIS 3 SLP155 T01670140 57031 FZRANO $
RJTY 240156Z COR 00000KT 2 1/2SM BR SCT005 BKN015 16/14 A3002 RMK AO2A SLP169 T01640142 FZRANO $ COR 0204
RJTY 240056Z 35003KT 2 1/2SM BR OVC005 15/15 A3004 RMK AO2A TWR VIS 2 1/4 CIG 003 RWY18 SLP176 T01480145 FZRANO $
RJTY 240026Z 00000KT 2 1/2SM BR OVC004 14/14 A3006 RMK AO2A TWR VIS 2 1/4 VIS 2 3/4 RWY18 CIG 003 RWY18 SLP183 FZRANO $
RJTY 232356Z 05003KT 2 3/4SM BR OVC005 14/13 A3008 RMK AO2A TWR VIS 2 1/4 CIG 003 RWY18 SLP190 60000 T01350133 10137 20130 58005 FZRANO $
RJTY 232256Z 02005KT 2 1/2SM BR OVC005 13/13 A3009 RMK AO2A TWR VIS 1 5/8 CIG 004 RWY18 SLP193 T01340132 FZRANO $
RJTY 232156Z 01006KT 2 1/2SM BR OVC004 13/13 A3010 RMK AO2A TWR VIS 1 1/2 CIG 003 RWY18 SLP197 T01310129 FZRANO $
RJTY 232142Z 02006KT 2 1/2SM BR OVC004 13/13 A3009 RMK AO2A TWR VIS 1 CIG 003 RWY18 SLP193 FZRANO $
RJTY 232057Z 05004KT 1 1/4SM BR OVC004 13/13 A3009 RMK AO2A TWR VIS 1/2 DZB38E46RAB46E49 SLP193 P0000 60000 T01330131 57005 FZRANO $
RJTY 232038Z AUTO 03005KT 1 7/8SM -DZ BR OVC004 13/13 A3009 RMK AO2 DZB38 SLP193 FZRANO $
RJTY 232026Z AUTO 01007KT 1 1/2SM BR OVC005 13/13 A3010 RMK AO2 CIG 004 RWY18 SLP196 FZRANO $
RJTY 231956Z AUTO 02004KT 2 1/2SM BR OVC005 14/13 A3010 RMK AO2 VIS 1 7/8V2 1/2 VIS 2 RWY18 SLP196 T01350133 FZRANO $
RJTY 231941Z AUTO 36005KT 1 7/8SM BR OVC006 14/13 A3010 RMK AO2 SLP196 FZRANO $
RJTY 231926Z AUTO 01004KT 2 1/2SM BR OVC007 14/13 A3010 RMK AO2 VIS 2 1/2V3 VIS 1 7/8 RWY18 CIG 004 RWY18 SLP196 FZRANO $
RJTY 231856Z AUTO 01004KT 4SM BR OVC007 14/13 A3010 RMK AO2 CIG 006 RWY18 SLP196 T01350130 FZRANO $
RJTY 231726Z AUTO 04003KT 5SM BR OVC007 14/13 A3012 RMK AO2 SLP203 FZRANO $
RJTY 231656Z AUTO 01003KT 5SM BR OVC008 14/13 A3013 RMK AO2 SLP205 T01380132 FZRANO $
RJTY 231256Z 15005KT 6SM BR R36/4000FT OVC012 14/12 A3019 RMK AO2A CIG 011 RWY18 SLP227 T01420122 FZRANO $
RJTY 231232Z 16005KT 6SM BR R36/4000FT OVC012 14/12 A3019 RMK AO2A SLP227 FZRANO $
RJTY 231218Z 16008KT 6SM BR OVC013 15/12 A3019 RMK AO2A CIG 012 RWY18 SLP226 FZRANO $
RJTY 231216Z 16009KT 6SM BR R36/4500FT OVC013 15/12 A3019 RMK AO2A CIG 012 RWY18 SLP226 FZRANO $
RJTY 231156Z 13004KT 6SM BR OVC013 15/12 A3020 RMK AO2A SLP230 T01460119 10169 20144 51013 FZRANO $
RJTY 231128Z 14004KT 4SM BR OVC013 15/12 A3020 RMK AO2A SLP230 FZRANO $
RJTY 231056Z 14004KT 4SM BR R36/4000FT OVC013 15/12 A3020 RMK AO2A SLP230 T01450122 FZRANO $
RJTY 231041Z AUTO 17006KT 8SM R36/4000FT OVC013 15/12 A3019 RMK AO2 SLP227 FZRANO $
RJTY 230956Z AUTO 15005KT 10SM R36/4500FT OVC018 15/12 A3018 RMK AO2 SLP223 T01530115 FZRANO $
RJTY 230937Z AUTO 15008KT 10SM R36/4500FT OVC018 15/11 A3017 RMK AO2 SLP220 FZRANO $
RJTY 230911Z AUTO 16007KT 8SM OVC019 16/12 A3017 RMK AO2 SLP219 FZRANO $
RJTY 230856Z AUTO 14007KT 10SM OVC020 16/12 A3016 RMK AO2 CIG 019 RWY18 SLP216 T01580116 55000 FZRANO $
RJTY 230756Z AUTO 14006KT 10SM OVC023 16/12 A3016 RMK AO2 CIG 022 RWY18 SLP216 T01620116 FZRANO $
RJTY 230656Z AUTO 16007KT 10SM OVC024 17/11 A3015 RMK AO2 OVC V BKN CIG 023 RWY18 SLP212 T01650114 FZRANO $
RJTY 230556Z AUTO 19006KT 10SM OVC025 17/12 A3016 RMK AO2 SLP216 T01690116 10179 20159 56011 FZRANO $
RJTY 230456Z AUTO 16006KT 10SM OVC026 17/12 A3016 RMK AO2 CIG 025 RWY18 SLP216 T01720117 FZRANO $
RJTY 230356Z AUTO 14003KT 10SM OVC027 17/12 A3018 RMK AO2 OVC V BKN CIG 026 RWY18 SLP222 T01730118 FZRANO $
RJTY 230335Z AUTO 10006KT 10SM BKN027 BKN032 18/12 A3018 RMK AO2 SLP222 FZRANO $
RJTY 230256Z AUTO 09005KT 10SM FEW023 BKN032 17/12 A3019 RMK AO2 SLP226 T01740119 58009 FZRANO $
RJTY 230241Z AUTO 10006KT 10SM SCT024 BKN030 17/12 A3020 RMK AO2 SLP229 FZRANO $
RJTY 230156Z AUTO 07006KT 10SM SCT021 BKN028 17/12 A3021 RMK AO2 CIG 021V028 SLP232 T01700121 FZRANO $
RJTY 230112Z AUTO 05006KT 10SM BKN020 OVC027 17/12 A3022 RMK AO2 CIG 019V027 SLP235 FZRANO $
RJTY 230057Z AUTO 07005KT 10SM OVC019 17/12 A3022 RMK AO2 SLP235 T01680123 FZRANO $
RJTY 222356Z AUTO 08004KT 9SM OVC015 16/12 A3022 RMK AO2 CIG 013 RWY18 SLP235 T01590123 10159 20137 52013 FZRANO $
RJTY 222256Z AUTO 08004KT 8SM OVC012 15/12 A3021 RMK AO2 CIG 011 RWY18 SLP232 T01530124 FZRANO $
RJTY 222156Z COR 06005KT 6SM BR OVC011 15/13 A3020 RMK AO2 CIG 009 RWY18 SLP228 T01500127 FZRANO $ COR 2225
RJTY 222111Z AUTO 09007KT 7SM OVC010 15/13 A3019 RMK AO2 SLP224 FZRANO $
RJTY 222056Z AUTO 07005KT 6SM BR OVC009 15/13 A3018 RMK AO2 SLP221 T01500130 52021 FZRANO $
RJTY 222026Z AUTO 04006KT 5SM BR OVC008 15/13 A3017 RMK AO2 SLP217 FZRANO $
RJTY 221956Z AUTO 05005KT 5SM BR OVC007 15/14 A3016 RMK AO2 CIG 006 RWY18 SLP213 T01500135 FZRANO $
RJTY 221912Z AUTO 02006KT 5SM BR OVC007 15/13 A3015 RMK AO2 CIG 006 RWY18 SLP210 FZRANO $
RJTY 221857Z AUTO 01008KT 5SM BR BKN008 15/13 A3014 RMK AO2 CIG 006 RWY18 SLP206 T01450130 FZRANO $
RJTY 221850Z AUTO 01008KT 5SM BR BKN008 BKN220 14/13 A3014 RMK AO2 CIG 008V220 BKN008 V SCT CIG 006 RWY18 SLP206 FZRANO $
RJTY 221835Z AUTO 01008KT 6SM BR FEW008 FEW220 14/13 A3014 RMK AO2 SLP206 FZRANO $
RJTY 221756Z AUTO 36007KT 9SM CLR 14/12 A3012 RMK AO2 SLP199 T01370116 10198 20137 53009 FZRANO $
RJTY 221656Z AUTO 36007KT 10SM CLR 14/11 A3010 RMK AO2 SLP192 T01400112 FZRANO $
RJTY 221556Z AUTO 01008KT 10SM CLR 14/10 A3009 RMK AO2 SLP189 T01410095 FZRANO $
RJTY 221457Z AUTO 05004KT 10SM CLR 16/10 A3010 RMK AO2 SLP192 T01610102 402870127 FZRANO $
RJTY 221356Z AUTO 00000KT 10SM CLR 18/10 A3009 RMK AO2 SLP188 T01750096 FZRANO $
RJTY 221306Z AUTO 26005KT 10SM CLR 19/11 A3007 RMK AO2 SLP181 FZRANO $
RJTY 221256Z AUTO 26004KT 10SM R36/4500FT CLR 19/11 A3008 RMK AO2 SLP185 T01890107 FZRANO $
RJTY 221156Z AUTO 29003KT 10SM R36/4500FT CLR 19/11 A3008 RMK AO2 SLP186 T01900111 10274 20187 52015 FZRANO $
RJTY 221114Z AUTO 00000KT 10SM R36/4500FT CLR 20/12 A3007 RMK AO2 SLP182 FZRANO $
RJTY 221056Z AUTO 00000KT 10SM CLR 20/12 A3006 RMK AO2 SLP179 T01950115 FZRANO $
RJTY 221052Z AUTO 00000KT 10SM CLR 19/11 A3006 RMK AO2 SLP179 FZRANO $
RJTY 220956Z AUTO 24003KT 10SM R36/4500FT CLR 22/11 A3004 RMK AO2 SLP172 T02160113 FZRANO $
RJTY 220952Z AUTO 25003KT 10SM R36/4500FT CLR 22/11 A3004 RMK AO2 SLP172 FZRANO $
RJTY 220856Z AUTO 22006KT 10SM CLR 23/11 A3003 RMK AO2 SLP170 T02300111 52003 FZRANO $
RJTY 220756Z AUTO 21008KT 10SM CLR 25/10 A3003 RMK AO2 SLP169 T02460101 FZRANO $
RJTY 220656Z AUTO 19012KT 10SM CLR 26/10 A3003 RMK AO2 SLP169 T02620095 FZRANO $
RJTY 220556Z AUTO 18010KT 10SM CLR 28/13 A3003 RMK AO2 SLP168 T02750127 10287 20220 57021 FZRANO $
RJTY 220456Z AUTO 15008KT 10SM CLR 29/12 A3004 RMK AO2 SLP171 T02870117 FZRANO $